createdAt,value
2024-04-17T00:03:47.362Z,22.10
2024-04-17T00:08:51.782Z,22.10
2024-04-17T00:13:59.680Z,22.10
2024-04-17T00:19:05.637Z,22.10
2024-04-17T00:24:09.355Z,22.10
2024-04-17T00:29:13.069Z,22.00
2024-04-17T00:34:16.713Z,22.00
2024-04-17T00:39:20.752Z,22.00
2024-04-17T00:44:24.253Z,22.00
2024-04-17T00:49:28.001Z,21.90
2024-04-17T00:54:31.600Z,21.90
2024-04-17T00:59:35.225Z,21.90
2024-04-17T01:04:39.043Z,21.90
2024-04-17T01:09:42.771Z,21.90
2024-04-17T01:14:46.802Z,21.80
2024-04-17T01:20:08.296Z,21.90
2024-04-17T01:25:11.658Z,21.80
2024-04-17T01:30:15.077Z,21.90
2024-04-17T01:35:18.516Z,21.90
2024-04-17T01:40:22.064Z,21.80
2024-04-17T01:45:25.542Z,21.80
2024-04-17T01:50:30.505Z,21.80
2024-04-17T01:55:34.202Z,21.70
2024-04-17T02:00:37.765Z,21.70
2024-04-17T02:05:41.154Z,21.70
2024-04-17T02:10:44.593Z,21.70
2024-04-17T02:15:47.990Z,21.60
2024-04-17T02:20:51.856Z,21.60
2024-04-17T02:25:56.195Z,21.60
2024-04-17T02:30:59.678Z,21.60
2024-04-17T02:36:03.098Z,21.60
2024-04-17T02:41:06.529Z,21.60
2024-04-17T02:46:09.893Z,21.60
2024-04-17T02:51:13.250Z,21.50
2024-04-17T02:56:16.923Z,21.50
2024-04-17T03:01:20.278Z,21.50
2024-04-17T03:06:23.718Z,21.50
2024-04-17T03:11:27.081Z,21.50
2024-04-17T03:16:30.983Z,21.50
2024-04-17T03:21:34.483Z,21.50
2024-04-17T03:26:38.057Z,21.50
2024-04-17T03:31:41.734Z,21.50
2024-04-17T03:36:46.177Z,21.50
2024-04-17T03:41:49.792Z,21.50
2024-04-17T03:46:53.417Z,21.40
2024-04-17T03:51:57.150Z,21.40
2024-04-17T03:57:00.763Z,21.40
2024-04-17T04:02:10.828Z,21.40
2024-04-17T04:07:16.305Z,21.30
2024-04-17T04:12:19.874Z,21.30
2024-04-17T04:17:23.647Z,21.30
2024-04-17T04:22:27.487Z,21.30
2024-04-17T04:27:31.306Z,21.40
2024-04-17T04:32:37.944Z,21.30
2024-04-17T04:37:41.641Z,21.30
2024-04-17T04:42:45.252Z,21.30
2024-04-17T04:47:49.211Z,21.30
2024-04-17T04:52:53.251Z,21.30
2024-04-17T04:57:57.766Z,21.30
2024-04-17T05:03:01.617Z,21.20
2024-04-17T05:08:05.851Z,21.30
2024-04-17T05:13:09.689Z,21.30
2024-04-17T05:18:13.540Z,21.20
2024-04-17T05:23:17.509Z,21.20
2024-04-17T05:28:21.130Z,21.20
2024-04-17T05:33:25.025Z,21.20
2024-04-17T05:38:28.793Z,21.20
2024-04-17T05:43:32.554Z,21.20
2024-04-17T05:48:36.438Z,21.20
2024-04-17T05:53:39.967Z,21.20
2024-04-17T05:58:43.559Z,21.20
2024-04-17T06:03:47.288Z,21.20
2024-04-17T06:08:51.662Z,21.10
2024-04-17T06:13:55.366Z,21.70
2024-04-17T06:18:59.115Z,22.30
2024-04-17T06:24:03.256Z,22.60
2024-04-17T06:29:06.752Z,22.60
2024-04-17T06:34:10.506Z,22.70
2024-04-17T06:39:15.149Z,22.60
2024-04-17T06:44:18.594Z,22.50
2024-04-17T06:49:22.285Z,22.60
2024-04-17T06:54:25.904Z,22.50
2024-04-17T06:59:30.273Z,22.50
2024-04-17T07:04:34.362Z,22.30
2024-04-17T07:09:38.107Z,22.10
2024-04-17T07:14:41.649Z,22.10
2024-04-17T07:19:45.310Z,22.10
2024-04-17T07:24:48.974Z,22.10
2024-04-17T07:29:52.598Z,22.10
2024-04-17T07:34:56.993Z,22.30
2024-04-17T07:40:01.593Z,22.10
2024-04-17T07:45:06.233Z,22.20
2024-04-17T07:50:10.122Z,22.20
2024-04-17T07:55:13.697Z,22.10
2024-04-17T08:00:17.616Z,22.20
2024-04-17T08:05:21.241Z,22.10
2024-04-17T08:10:25.008Z,22.00
2024-04-17T08:15:28.688Z,21.90
2024-04-17T08:20:32.434Z,21.80
2024-04-17T08:25:36.296Z,22.20
2024-04-17T08:30:39.968Z,22.70
2024-04-17T08:35:43.567Z,23.00
2024-04-17T08:40:47.163Z,23.10
2024-04-17T08:45:55.302Z,23.00
2024-04-17T08:51:00.049Z,23.00
2024-04-17T08:56:04.271Z,22.90
2024-04-17T09:01:14.072Z,22.80
2024-04-17T09:06:18.123Z,22.70
2024-04-17T09:11:22.150Z,22.50
2024-04-17T09:16:25.642Z,22.50
2024-04-17T09:21:31.428Z,22.50
2024-04-17T09:26:36.638Z,22.60
2024-04-17T09:31:46.287Z,22.50
2024-04-17T09:36:49.893Z,22.40
2024-04-17T09:41:54.952Z,22.30
2024-04-17T09:47:01.902Z,22.50
2024-04-17T09:52:08.448Z,22.50
2024-04-17T09:57:13.206Z,22.30
2024-04-17T10:02:18.410Z,22.10
2024-04-17T10:07:26.234Z,22.10
2024-04-17T10:12:34.282Z,22.00
2024-04-17T10:17:39.141Z,21.90
2024-04-17T10:22:53.502Z,21.90
2024-04-17T10:28:02.605Z,21.90
2024-04-17T10:33:29.048Z,21.90
2024-04-17T10:38:36.455Z,22.00
2024-04-17T10:43:43.093Z,22.00
2024-04-17T10:48:48.388Z,22.60
2024-04-17T10:53:55.358Z,23.10
2024-04-17T10:59:02.130Z,23.20
2024-04-17T11:04:06.888Z,23.10
2024-04-17T11:09:13.827Z,23.00
2024-04-17T11:14:18.416Z,23.00
2024-04-17T11:19:22.292Z,22.90
2024-04-17T11:24:26.009Z,22.80
2024-04-17T11:29:37.011Z,22.70
2024-04-17T11:34:48.034Z,22.70
2024-04-17T11:39:51.620Z,22.70
2024-04-17T11:44:57.212Z,22.70
2024-04-17T11:50:01.004Z,22.60
2024-04-17T11:55:05.260Z,22.50
2024-04-17T12:00:10.357Z,22.50
2024-04-17T12:05:16.706Z,22.50
2024-04-17T12:10:20.940Z,22.40
2024-04-17T12:15:24.669Z,22.40
2024-04-17T12:20:28.391Z,22.50
2024-04-17T12:25:50.781Z,22.40
2024-04-17T12:30:55.687Z,22.30
2024-04-17T12:35:59.759Z,22.20
2024-04-17T12:41:05.004Z,22.20
2024-04-17T12:46:08.662Z,22.10
2024-04-17T12:51:12.176Z,22.10
2024-04-17T12:56:17.617Z,22.10
2024-04-17T13:01:21.317Z,22.10
2024-04-17T13:06:26.607Z,22.10
2024-04-17T13:11:30.258Z,22.10
2024-04-17T13:16:34.870Z,22.00
2024-04-17T13:21:38.610Z,22.00
2024-04-17T13:26:42.210Z,22.00
2024-04-17T13:31:46.451Z,21.90
2024-04-17T13:36:52.921Z,22.20
2024-04-17T13:41:56.546Z,22.70
2024-04-17T13:47:00.313Z,23.00
2024-04-17T13:52:04.369Z,23.00
2024-04-17T13:57:08.045Z,23.00
2024-04-17T14:02:11.939Z,23.00
2024-04-17T14:07:15.690Z,22.90
2024-04-17T14:12:19.352Z,22.90
2024-04-17T14:17:23.234Z,22.80
2024-04-17T14:22:27.179Z,22.70
2024-04-17T14:27:34.044Z,22.70
2024-04-17T14:32:45.729Z,22.70
2024-04-17T14:37:59.035Z,22.80
2024-04-17T14:43:04.601Z,22.80
2024-04-17T14:48:08.777Z,22.80
2024-04-17T14:53:12.570Z,22.80
2024-04-17T14:58:19.759Z,22.90
2024-04-17T15:03:24.959Z,22.80
2024-04-17T15:08:35.018Z,22.80
2024-04-17T15:13:39.987Z,22.80
2024-04-17T15:18:45.535Z,22.80
2024-04-17T15:23:50.303Z,23.00
2024-04-17T15:28:54.913Z,22.90
2024-04-17T15:33:59.296Z,22.90
2024-04-17T15:39:03.071Z,23.00
2024-04-17T15:44:06.837Z,22.90
2024-04-17T15:49:10.604Z,22.80
2024-04-17T15:54:15.198Z,22.70
2024-04-17T15:59:18.997Z,22.70
2024-04-17T16:04:23.206Z,22.70
2024-04-17T16:09:27.326Z,22.60
2024-04-17T16:14:32.660Z,22.40
2024-04-17T16:19:37.077Z,22.40
2024-04-17T16:24:41.911Z,22.40
2024-04-17T16:29:53.227Z,22.50
2024-04-17T16:34:56.777Z,22.50
2024-04-17T16:40:00.427Z,22.50
2024-04-17T16:45:04.733Z,22.50
2024-04-17T16:50:08.640Z,22.40
2024-04-17T16:55:12.673Z,22.30
2024-04-17T17:00:16.613Z,22.20
2024-04-17T17:05:20.021Z,22.20
2024-04-17T17:10:24.421Z,22.20
2024-04-17T17:15:29.507Z,22.20
2024-04-17T17:20:33.455Z,22.10
2024-04-17T17:25:40.239Z,22.10
2024-04-17T17:30:44.251Z,22.10
2024-04-17T17:35:56.393Z,22.10
2024-04-17T17:41:13.274Z,22.10
2024-04-17T17:46:18.908Z,22.00
2024-04-17T17:51:22.861Z,22.10
2024-04-17T17:56:26.487Z,22.00
2024-04-17T18:01:33.300Z,22.00
2024-04-17T18:06:37.343Z,21.90
2024-04-17T18:11:40.916Z,22.00
2024-04-17T18:16:44.574Z,22.20
2024-04-17T18:21:48.268Z,22.70
2024-04-17T18:26:51.882Z,23.10
2024-04-17T18:31:55.491Z,23.40
2024-04-17T18:36:59.149Z,23.50
2024-04-17T18:42:02.699Z,23.30
2024-04-17T18:47:06.568Z,23.20
2024-04-17T18:52:10.194Z,23.10
2024-04-17T18:57:13.957Z,23.10
2024-04-17T19:02:17.693Z,23.10
2024-04-17T19:07:21.469Z,23.10
2024-04-17T19:12:25.119Z,23.10
2024-04-17T19:17:28.724Z,23.10
2024-04-17T19:22:34.506Z,22.80
2024-04-17T19:27:38.240Z,22.80
2024-04-17T19:32:46.340Z,22.70
2024-04-17T19:37:50.198Z,22.70
2024-04-17T19:42:58.387Z,22.70
2024-04-17T19:48:05.606Z,22.60
2024-04-17T19:53:09.124Z,22.60
2024-04-17T19:58:12.850Z,22.60
2024-04-17T20:03:19.161Z,22.50
2024-04-17T20:08:22.977Z,22.40
2024-04-17T20:13:26.997Z,22.60
2024-04-17T20:18:31.911Z,22.90
2024-04-17T20:23:36.496Z,23.20
2024-04-17T20:28:52.099Z,23.30
2024-04-17T20:34:01.467Z,23.50
2024-04-17T20:39:07.677Z,23.50
2024-04-17T20:44:11.243Z,23.60
2024-04-17T20:49:14.886Z,23.50
2024-04-17T20:54:18.709Z,23.30
2024-04-17T20:59:22.629Z,23.40
2024-04-17T21:04:26.303Z,23.40
2024-04-17T21:09:32.237Z,23.40
2024-04-17T21:14:35.965Z,23.30
2024-04-17T21:19:39.597Z,23.20
2024-04-17T21:24:43.371Z,23.10
2024-04-17T21:29:46.940Z,22.90
2024-04-17T21:34:50.716Z,23.00
2024-04-17T21:39:55.694Z,23.00
2024-04-17T21:45:00.872Z,23.00
2024-04-17T21:50:04.904Z,22.80
2024-04-17T21:55:10.468Z,22.60
2024-04-17T22:00:14.451Z,22.80
2024-04-17T22:05:18.136Z,23.00
2024-04-17T22:10:21.863Z,23.40
2024-04-17T22:15:25.580Z,23.60
2024-04-17T22:20:29.303Z,23.70
2024-04-17T22:25:33.568Z,23.60
2024-04-17T22:30:37.284Z,23.60
2024-04-17T22:35:42.037Z,23.50
2024-04-17T22:40:45.654Z,23.40
2024-04-17T22:45:49.318Z,23.30
2024-04-17T22:50:53.000Z,23.30
2024-04-17T22:55:57.099Z,23.20
2024-04-17T23:01:00.715Z,23.10
2024-04-17T23:06:04.586Z,23.00
2024-04-17T23:11:11.465Z,22.90
2024-04-17T23:16:16.969Z,22.80
2024-04-17T23:21:20.519Z,22.80
2024-04-17T23:26:24.291Z,22.70
2024-04-17T23:31:27.815Z,22.60
2024-04-17T23:36:31.364Z,22.60
2024-04-17T23:41:34.832Z,22.50
2024-04-17T23:46:38.402Z,22.50
2024-04-17T23:51:42.026Z,22.50
2024-04-17T23:56:45.730Z,22.70
